createdAt,value
2022-11-22T00:01:18.447Z,18649.47
2022-11-22T00:03:46.520Z,18679.94
2022-11-22T00:06:14.596Z,18665.72
2022-11-22T00:08:42.682Z,18659.63
2022-11-22T00:11:10.812Z,18655.56
2022-11-22T00:13:40.231Z,18669.78
2022-11-22T00:16:08.348Z,18637.28
2022-11-22T00:18:36.435Z,18616.97
2022-11-22T00:21:08.941Z,18667.75
2022-11-22T00:23:37.179Z,18616.97
2022-11-22T00:26:06.948Z,18671.81
2022-11-22T00:28:35.043Z,18704.31
2022-11-22T00:31:04.480Z,18702.28
2022-11-22T00:33:32.590Z,18700.25
2022-11-22T00:36:00.730Z,18673.84
2022-11-22T00:38:29.143Z,18675.88
2022-11-22T00:40:57.269Z,18667.75
2022-11-22T00:43:25.417Z,18688.06
2022-11-22T00:45:53.952Z,18690.09
2022-11-22T00:48:23.383Z,18677.91
2022-11-22T00:50:51.494Z,18679.94
2022-11-22T00:53:19.991Z,18679.94
2022-11-22T00:55:48.180Z,18692.13
2022-11-22T00:58:16.861Z,18667.75
2022-11-22T01:00:45.380Z,18679.94
2022-11-22T01:03:14.853Z,18700.25
2022-11-22T01:05:44.355Z,18673.84
2022-11-22T01:08:12.531Z,18677.91
2022-11-22T01:10:40.721Z,18688.06
2022-11-22T01:13:13.698Z,18673.84
2022-11-22T01:15:41.814Z,18690.09
2022-11-22T01:18:09.883Z,18631.19
2022-11-22T01:20:37.981Z,18696.19
2022-11-22T01:23:07.526Z,18696.19
2022-11-22T01:25:35.650Z,18659.63
2022-11-22T01:28:04.276Z,18688.06
2022-11-22T01:30:32.450Z,18657.59
2022-11-22T01:33:00.535Z,18641.34
2022-11-22T01:35:28.695Z,18667.75
2022-11-22T01:37:56.843Z,18665.72
2022-11-22T01:40:26.355Z,18694.16
2022-11-22T01:42:57.101Z,18659.63
2022-11-22T01:45:48.604Z,18653.53
2022-11-22T01:48:33.810Z,18688.06
2022-11-22T01:51:08.985Z,18667.75
2022-11-22T01:53:40.161Z,18647.44
2022-11-22T01:56:14.286Z,18692.13
2022-11-22T01:58:45.822Z,18663.69
2022-11-22T02:01:14.063Z,18647.44
2022-11-22T02:03:47.896Z,18631.19
2022-11-22T02:06:17.227Z,18677.91
2022-11-22T02:08:58.551Z,18659.63
2022-11-22T02:11:34.003Z,18657.59
2022-11-22T02:14:04.092Z,18663.69
2022-11-22T02:16:33.064Z,18633.22
2022-11-22T02:19:01.183Z,18667.75
2022-11-22T02:21:30.318Z,18655.56
2022-11-22T02:24:09.613Z,18692.13
2022-11-22T02:26:39.128Z,18643.38
2022-11-22T02:29:09.549Z,18655.56
2022-11-22T02:31:43.445Z,18655.56
2022-11-22T02:34:12.290Z,18673.84
2022-11-22T02:36:46.613Z,18629.16
2022-11-22T02:39:20.628Z,18647.44
2022-11-22T02:41:51.307Z,18684.00
2022-11-22T02:44:21.207Z,18684.00
2022-11-22T02:46:52.185Z,18655.56
2022-11-22T02:49:23.333Z,18675.88
2022-11-22T02:51:53.445Z,18647.44
2022-11-22T02:54:21.707Z,18675.88
2022-11-22T02:56:51.228Z,18675.88
2022-11-22T02:59:19.328Z,18661.66
2022-11-22T03:01:48.717Z,18661.66
2022-11-22T03:04:25.478Z,18647.44
2022-11-22T03:06:56.167Z,18657.59
2022-11-22T03:09:24.998Z,18657.59
2022-11-22T03:11:55.776Z,18651.50
2022-11-22T03:14:24.132Z,18639.31
2022-11-22T03:16:52.862Z,18677.91
2022-11-22T03:19:21.243Z,18647.44
2022-11-22T03:21:49.552Z,18673.84
2022-11-22T03:24:19.916Z,18679.94
2022-11-22T03:26:49.420Z,18647.44
2022-11-22T03:29:19.299Z,18661.66
2022-11-22T03:31:47.524Z,18669.78
2022-11-22T03:34:17.014Z,18663.69
2022-11-22T03:36:45.447Z,18688.06
2022-11-22T03:39:13.609Z,18665.72
2022-11-22T03:41:41.880Z,18657.59
2022-11-22T03:44:10.025Z,18681.97
2022-11-22T03:46:39.533Z,18675.88
2022-11-22T03:49:07.707Z,18700.25
2022-11-22T03:51:35.876Z,18667.75
2022-11-22T03:54:04.034Z,18698.22
2022-11-22T03:56:32.297Z,18673.84
2022-11-22T03:59:00.631Z,18696.19
2022-11-22T04:01:28.811Z,18688.06
2022-11-22T04:03:58.375Z,18679.94
2022-11-22T04:06:26.471Z,18686.03
2022-11-22T04:08:54.623Z,18696.19
2022-11-22T04:11:22.806Z,18671.81
2022-11-22T04:14:08.260Z,18673.84
2022-11-22T04:16:36.470Z,18663.69
2022-11-22T04:19:05.923Z,18681.97
2022-11-22T04:21:36.024Z,18700.25
2022-11-22T04:24:24.412Z,18681.97
2022-11-22T04:26:52.860Z,18677.91
2022-11-22T04:29:23.158Z,18649.47
2022-11-22T04:32:10.570Z,18688.06
2022-11-22T04:34:40.048Z,18696.19
2022-11-22T04:37:08.404Z,18700.25
2022-11-22T04:39:36.654Z,18720.59
2022-11-22T04:42:22.548Z,18692.13
2022-11-22T04:44:50.690Z,18698.22
2022-11-22T04:47:34.126Z,18696.19
2022-11-22T04:50:25.805Z,18728.72
2022-11-22T04:52:55.389Z,18706.38
2022-11-22T04:55:23.654Z,18684.00
2022-11-22T04:57:57.525Z,18679.94
2022-11-22T05:00:28.109Z,18694.16
2022-11-22T05:02:56.298Z,18718.56
2022-11-22T05:05:26.765Z,18706.38
2022-11-22T05:07:55.190Z,18706.38
2022-11-22T05:10:26.856Z,18712.47
2022-11-22T05:12:57.110Z,18690.09
2022-11-22T05:15:25.372Z,18708.41
2022-11-22T05:17:53.500Z,18698.22
2022-11-22T05:20:21.627Z,18700.25
2022-11-22T05:23:08.675Z,18681.97
2022-11-22T05:25:36.747Z,18692.13
2022-11-22T05:28:04.919Z,18696.19
2022-11-22T05:30:32.989Z,18696.19
2022-11-22T05:33:01.119Z,18679.94
2022-11-22T05:35:29.486Z,18710.44
2022-11-22T05:37:59.575Z,18688.06
2022-11-22T05:40:28.099Z,18720.59
2022-11-22T05:42:56.244Z,18710.44
2022-11-22T05:45:24.360Z,18692.13
2022-11-22T05:47:52.524Z,18698.22
2022-11-22T05:50:20.673Z,18708.41
2022-11-22T05:52:48.816Z,18692.13
2022-11-22T05:55:18.512Z,18706.38
2022-11-22T05:57:46.637Z,18708.41
2022-11-22T06:00:15.931Z,18681.97
2022-11-22T06:02:44.083Z,18722.63
2022-11-22T06:05:12.310Z,18708.41
2022-11-22T06:07:40.498Z,18736.84
2022-11-22T06:10:10.146Z,18700.25
2022-11-22T06:12:39.663Z,18722.63
2022-11-22T06:15:09.444Z,18730.75
2022-11-22T06:17:37.598Z,18692.13
2022-11-22T06:20:07.035Z,18710.44
2022-11-22T06:22:35.233Z,18696.19
2022-11-22T06:25:03.428Z,18714.50
2022-11-22T06:27:31.734Z,18696.19
2022-11-22T06:30:01.191Z,18716.53
2022-11-22T06:32:29.353Z,18669.78
2022-11-22T06:34:57.442Z,18712.47
2022-11-22T06:37:25.619Z,18712.47
2022-11-22T06:39:53.893Z,18749.03
2022-11-22T06:42:22.015Z,18716.53
2022-11-22T06:44:50.141Z,18665.72
2022-11-22T06:47:19.628Z,18686.03
2022-11-22T06:49:47.765Z,18728.72
2022-11-22T06:52:15.866Z,18694.16
2022-11-22T06:54:44.065Z,18706.38
2022-11-22T06:57:14.985Z,18704.31
2022-11-22T06:59:43.108Z,18706.38
2022-11-22T07:02:13.294Z,18679.94
2022-11-22T07:04:56.289Z,18690.09
2022-11-22T07:07:31.027Z,18692.13
2022-11-22T07:09:59.275Z,18716.53
2022-11-22T07:12:27.758Z,18696.19
2022-11-22T07:14:55.822Z,18704.31
2022-11-22T07:17:23.848Z,18704.31
2022-11-22T07:19:53.195Z,18704.31
2022-11-22T07:22:21.214Z,18712.47
2022-11-22T07:24:49.262Z,18708.41
2022-11-22T07:27:17.324Z,18718.56
2022-11-22T07:29:45.437Z,18690.09
2022-11-22T07:32:13.463Z,18714.50
2022-11-22T07:34:41.508Z,18738.88
2022-11-22T07:37:10.966Z,18696.19
2022-11-22T07:39:39.028Z,18698.22
2022-11-22T07:42:07.152Z,18708.41
2022-11-22T07:44:35.196Z,18722.63
2022-11-22T07:47:03.226Z,18724.66
2022-11-22T07:49:31.499Z,18730.75
2022-11-22T07:52:00.052Z,18734.81
2022-11-22T07:54:29.504Z,18716.53
2022-11-22T07:56:57.614Z,18716.53
2022-11-22T07:59:25.632Z,18724.66
2022-11-22T08:01:53.764Z,18728.72
2022-11-22T08:04:21.839Z,18767.31
2022-11-22T08:06:49.924Z,18728.72
2022-11-22T08:09:17.976Z,18740.91
2022-11-22T08:11:47.423Z,18747.00
2022-11-22T08:14:15.657Z,18767.31
2022-11-22T08:16:43.749Z,18769.34
2022-11-22T08:19:15.932Z,18757.16
2022-11-22T08:21:43.985Z,18769.34
2022-11-22T08:24:12.458Z,18787.63
2022-11-22T08:26:40.597Z,18816.06
2022-11-22T08:29:14.561Z,18791.69
2022-11-22T08:31:42.833Z,18814.03
2022-11-22T08:34:10.859Z,18797.78
2022-11-22T08:36:39.208Z,18822.19
2022-11-22T08:39:07.520Z,18803.88
2022-11-22T08:41:35.741Z,18761.22
2022-11-22T08:44:03.808Z,18799.81
2022-11-22T08:46:33.186Z,18816.06
2022-11-22T08:49:03.694Z,18816.06
2022-11-22T08:51:36.867Z,18809.97
2022-11-22T08:54:05.044Z,18826.25
2022-11-22T08:56:33.093Z,18838.44
2022-11-22T08:59:01.307Z,18807.94
2022-11-22T09:01:29.399Z,18828.28
2022-11-22T09:03:58.867Z,18848.59
2022-11-22T09:09:36.272Z,18870.94
2022-11-22T09:12:03.083Z,18872.97
2022-11-22T09:14:31.135Z,18834.38
2022-11-22T09:16:59.176Z,18868.91
2022-11-22T09:19:28.721Z,18903.44
2022-11-22T09:21:56.957Z,18899.38
2022-11-22T09:24:25.071Z,18846.56
2022-11-22T09:26:53.135Z,18893.28
2022-11-22T09:29:21.236Z,18866.88
2022-11-22T09:31:49.566Z,18889.22
2022-11-22T09:34:17.577Z,18897.34
2022-11-22T09:36:46.951Z,18891.25
2022-11-22T09:39:15.038Z,18883.13
2022-11-22T09:42:33.430Z,18891.25
2022-11-22T09:45:27.426Z,18872.97
2022-11-22T09:48:11.319Z,18927.84
2022-11-22T09:50:49.820Z,18909.53
2022-11-22T09:53:27.819Z,18911.56
2022-11-22T09:56:01.596Z,18911.56
2022-11-22T09:58:34.404Z,18927.84
2022-11-22T10:01:11.334Z,18923.78
2022-11-22T10:03:47.321Z,18913.59
2022-11-22T10:06:23.865Z,18915.63
2022-11-22T10:09:11.754Z,18931.91
2022-11-22T10:11:48.003Z,18927.84
2022-11-22T10:14:32.792Z,18954.25
2022-11-22T10:17:18.547Z,18929.88
2022-11-22T10:19:59.489Z,18940.03
2022-11-22T10:22:31.106Z,18915.63
2022-11-22T10:25:04.223Z,18954.25
2022-11-22T10:27:34.427Z,18946.13
2022-11-22T10:30:07.446Z,18962.38
2022-11-22T10:32:44.153Z,19000.97
2022-11-22T10:35:41.729Z,18974.56
2022-11-22T10:38:44.053Z,19003.00
2022-11-22T10:41:38.501Z,18976.59
2022-11-22T10:44:28.630Z,18984.72
2022-11-22T10:47:13.352Z,18978.63
2022-11-22T10:49:57.106Z,19003.00
2022-11-22T10:52:37.636Z,18980.66
2022-11-22T10:55:27.092Z,18986.75
2022-11-22T10:58:08.827Z,18982.69
2022-11-22T11:00:45.078Z,18966.44
2022-11-22T11:03:28.498Z,18978.63
2022-11-22T11:06:22.820Z,19005.03
2022-11-22T11:09:54.845Z,18988.78
2022-11-22T11:11:52.288Z,19009.09
2022-11-22T11:14:31.528Z,18974.56
2022-11-22T11:17:02.243Z,18954.25
2022-11-22T11:19:36.505Z,18954.25
2022-11-22T11:22:44.283Z,18952.22
2022-11-22T11:25:31.705Z,18946.13
2022-11-22T11:28:06.919Z,18976.59
2022-11-22T11:30:46.628Z,18984.72
2022-11-22T11:33:30.171Z,18960.34
2022-11-22T11:36:06.849Z,18984.72
2022-11-22T11:38:38.590Z,18966.44
2022-11-22T11:41:26.610Z,18956.28
2022-11-22T11:43:57.262Z,18917.66
2022-11-22T11:46:29.696Z,18950.19
2022-11-22T11:49:11.921Z,18938.00
2022-11-22T11:51:42.344Z,18948.16
2022-11-22T11:54:16.563Z,18927.84
2022-11-22T11:56:50.882Z,18942.06
2022-11-22T11:59:21.376Z,18925.81
2022-11-22T12:01:58.410Z,18929.88
2022-11-22T12:04:31.210Z,18978.63
2022-11-22T12:07:05.449Z,18938.00
2022-11-22T12:09:37.654Z,18950.19
2022-11-22T12:12:36.941Z,18948.16
2022-11-22T12:15:17.800Z,19029.44
2022-11-22T12:17:57.205Z,18970.50
2022-11-22T12:20:41.476Z,19009.09
2022-11-22T12:23:21.526Z,18986.75
2022-11-22T12:25:54.521Z,19007.06
2022-11-22T12:28:26.433Z,19013.16
2022-11-22T12:31:01.101Z,19019.28
2022-11-22T12:33:37.386Z,19007.06
2022-11-22T12:36:15.744Z,19013.16
2022-11-22T12:38:46.951Z,19027.41
2022-11-22T12:41:19.100Z,18984.72
2022-11-22T12:43:54.575Z,18986.75
2022-11-22T12:46:28.985Z,19019.28
2022-11-22T12:49:03.746Z,19041.63
2022-11-22T12:51:46.554Z,19007.06
2022-11-22T12:54:23.505Z,18998.94
2022-11-22T12:56:57.032Z,18974.56
2022-11-22T12:59:39.214Z,18960.34
2022-11-22T13:02:32.012Z,19000.97
2022-11-22T13:05:10.250Z,18986.75
2022-11-22T13:07:58.266Z,19000.97
2022-11-22T13:10:37.352Z,18984.72
2022-11-22T13:13:11.156Z,18996.91
2022-11-22T13:15:41.824Z,18964.41
2022-11-22T13:18:12.611Z,18982.69
2022-11-22T13:20:58.004Z,18994.88
2022-11-22T13:23:50.862Z,18980.66
2022-11-22T13:26:30.008Z,19007.06
2022-11-22T13:28:59.327Z,18980.66
2022-11-22T13:31:27.638Z,18996.91
2022-11-22T13:33:59.289Z,18976.59
2022-11-22T13:36:41.201Z,18990.81
2022-11-22T13:39:19.908Z,18964.41
2022-11-22T13:42:06.976Z,18952.22
2022-11-22T13:44:52.988Z,19003.00
2022-11-22T13:47:43.465Z,19005.03
2022-11-22T13:51:03.345Z,19003.00
2022-11-22T13:53:36.887Z,18988.78
2022-11-22T13:56:59.579Z,18970.50
2022-11-22T13:59:28.052Z,18978.63
2022-11-22T14:02:22.396Z,18958.31
2022-11-22T14:04:56.208Z,19003.00
2022-11-22T14:07:40.006Z,18966.44
2022-11-22T14:10:35.800Z,18972.53
2022-11-22T14:13:36.953Z,18966.44
2022-11-22T14:16:28.760Z,18958.31
2022-11-22T14:19:18.746Z,18956.28
2022-11-22T14:22:19.445Z,18942.06
2022-11-22T14:25:05.522Z,18929.88
2022-11-22T14:27:52.202Z,18952.22
2022-11-22T14:30:22.099Z,18903.44
2022-11-22T14:33:04.225Z,18919.69
2022-11-22T14:35:35.894Z,18901.41
2022-11-22T14:38:30.627Z,18919.69
2022-11-22T14:41:43.890Z,18907.50
2022-11-22T14:44:18.371Z,18915.63
2022-11-22T14:46:56.164Z,18891.25
2022-11-22T14:49:42.891Z,18899.38
2022-11-22T14:52:22.318Z,18889.22
2022-11-22T14:54:57.476Z,18862.81
2022-11-22T14:57:30.323Z,18872.97
2022-11-22T15:00:19.858Z,18891.25
2022-11-22T15:03:37.073Z,18875.00
2022-11-22T15:09:10.825Z,18860.78
2022-11-22T15:09:53.949Z,18868.91
2022-11-22T15:13:11.622Z,18814.03
2022-11-22T15:57:31.951Z,18809.97
2022-11-22T16:00:00.942Z,18765.28
2022-11-22T16:02:32.307Z,18789.66
2022-11-22T16:06:07.268Z,18728.72
2022-11-22T16:07:57.306Z,18757.16
2022-11-22T16:10:38.565Z,18769.34
2022-11-22T16:13:15.158Z,18783.56
2022-11-22T16:15:43.274Z,18761.22
2022-11-22T16:18:28.433Z,18799.81
2022-11-22T16:21:06.109Z,18765.28
2022-11-22T16:23:37.296Z,18769.34
2022-11-22T16:26:24.611Z,18773.41
2022-11-22T16:28:55.196Z,18781.53
2022-11-22T16:31:26.048Z,18779.50
2022-11-22T16:33:56.517Z,18783.56
2022-11-22T16:36:30.446Z,18759.19
2022-11-22T16:38:59.525Z,18753.09
2022-11-22T16:41:30.349Z,18761.22
2022-11-22T16:44:02.898Z,18753.09
2022-11-22T16:46:31.473Z,18726.69
2022-11-22T16:48:59.594Z,18765.28
2022-11-22T16:51:30.883Z,18744.97
2022-11-22T16:54:06.736Z,18742.94
2022-11-22T16:56:35.186Z,18749.03
2022-11-22T16:59:06.897Z,18769.34
2022-11-22T17:01:42.012Z,18724.66
2022-11-22T17:04:23.040Z,18769.34
2022-11-22T17:06:53.164Z,18783.56
2022-11-22T17:09:21.266Z,18763.25
2022-11-22T17:11:50.266Z,18773.41
2022-11-22T17:14:20.675Z,18759.19
2022-11-22T17:16:48.915Z,18744.97
2022-11-22T17:19:51.540Z,18763.25
2022-11-22T17:22:07.227Z,18797.78
2022-11-22T17:24:35.470Z,18777.47
2022-11-22T17:27:03.596Z,18747.00
2022-11-22T17:32:20.263Z,18742.94
2022-11-22T17:34:48.400Z,18765.28
2022-11-22T17:37:17.920Z,18747.00
2022-11-22T17:39:46.358Z,18694.16
2022-11-22T17:42:15.244Z,18722.63
2022-11-22T17:44:43.355Z,18755.13
2022-11-22T17:47:11.507Z,18726.69
2022-11-22T17:49:39.878Z,18728.72
2022-11-22T17:52:08.020Z,18736.84
2022-11-22T17:54:38.767Z,18700.25
2022-11-22T17:57:06.841Z,18728.72
2022-11-22T17:59:35.197Z,18755.13
2022-11-22T18:02:03.478Z,18755.13
2022-11-22T18:04:31.954Z,18757.16
2022-11-22T18:07:00.255Z,18740.91
2022-11-22T18:09:28.639Z,18744.97
2022-11-22T18:11:58.394Z,18765.28
2022-11-22T18:14:27.589Z,18736.84
2022-11-22T18:16:55.683Z,18757.16
2022-11-22T18:19:24.308Z,18734.81
2022-11-22T18:21:52.744Z,18734.81
2022-11-22T18:24:20.855Z,18692.13
2022-11-22T18:26:49.639Z,18708.41
2022-11-22T18:32:07.360Z,18728.72
2022-11-22T18:34:35.579Z,18718.56
2022-11-22T18:37:05.104Z,18708.41
2022-11-22T18:42:24.366Z,18702.28
2022-11-22T18:44:53.832Z,18702.28
2022-11-22T18:47:21.928Z,18728.72
2022-11-22T18:49:50.179Z,18669.78
2022-11-22T18:52:18.379Z,18698.22
2022-11-22T18:54:46.607Z,18694.16
2022-11-22T18:57:14.750Z,18690.09
2022-11-22T18:59:42.849Z,18692.13
2022-11-22T19:02:12.354Z,18677.91
2022-11-22T19:04:40.455Z,18688.06
2022-11-22T19:07:08.641Z,18688.06
2022-11-22T19:09:36.867Z,18698.22
2022-11-22T19:12:05.685Z,18667.75
2022-11-22T19:14:34.009Z,18673.84
2022-11-22T19:17:02.359Z,18677.91
2022-11-22T19:19:32.322Z,18665.72
2022-11-22T19:22:01.135Z,18684.00
2022-11-22T19:24:30.021Z,18696.19
2022-11-22T19:26:58.462Z,18706.38
2022-11-22T19:29:26.644Z,18651.50
2022-11-22T19:31:54.814Z,18673.84
2022-11-22T19:34:22.923Z,18692.13
2022-11-22T19:36:52.438Z,18681.97
2022-11-22T19:39:20.588Z,18669.78
2022-11-22T19:41:48.764Z,18671.81
2022-11-22T19:44:16.876Z,18651.50
2022-11-22T19:46:45.006Z,18655.56
2022-11-22T19:49:13.224Z,18681.97
2022-11-22T19:51:41.428Z,18669.78
2022-11-22T19:54:11.028Z,18688.06
2022-11-22T19:56:39.993Z,18690.09
2022-11-22T19:59:10.340Z,18667.75
2022-11-22T20:01:39.669Z,18704.31
2022-11-22T20:04:08.103Z,18712.47
2022-11-22T20:06:37.622Z,18720.59
2022-11-22T20:09:09.157Z,18677.91
2022-11-22T20:11:40.067Z,18704.31
2022-11-22T20:14:09.753Z,18736.84
2022-11-22T20:16:41.115Z,18706.38
2022-11-22T20:19:09.599Z,18669.78
2022-11-22T20:21:39.881Z,18702.28
2022-11-22T20:24:08.715Z,18700.25
2022-11-22T20:26:38.396Z,18675.88
2022-11-22T20:29:09.267Z,18679.94
2022-11-22T20:31:38.567Z,18722.63
2022-11-22T20:34:06.791Z,18718.56
2022-11-22T20:36:36.591Z,18704.31
2022-11-22T20:39:10.352Z,18706.38
2022-11-22T20:41:41.449Z,18704.31
2022-11-22T20:44:14.423Z,18720.59
2022-11-22T20:46:43.031Z,18700.25
2022-11-22T20:49:11.304Z,18728.72
2022-11-22T20:51:40.174Z,18708.41
2022-11-22T20:54:09.244Z,18684.00
2022-11-22T20:56:39.538Z,18716.53
2022-11-22T20:59:07.878Z,18720.59
2022-11-22T21:01:36.104Z,18716.53
2022-11-22T21:04:04.553Z,18708.41
2022-11-22T21:06:34.801Z,18692.13
2022-11-22T21:09:02.937Z,18724.66
2022-11-22T21:11:31.967Z,18724.66
2022-11-22T21:14:01.652Z,18734.81
2022-11-22T21:16:31.328Z,18722.63
2022-11-22T21:19:01.991Z,18755.13
2022-11-22T21:21:31.554Z,18728.72
2022-11-22T21:24:02.546Z,18738.88
2022-11-22T21:26:31.603Z,18726.69
2022-11-22T21:29:03.224Z,18761.22
2022-11-22T21:31:31.437Z,18751.06
2022-11-22T21:33:59.574Z,18767.31
2022-11-22T21:36:27.889Z,18718.56
2022-11-22T21:38:55.998Z,18734.81
2022-11-22T21:41:40.885Z,18730.75
2022-11-22T21:44:11.592Z,18738.88
2022-11-22T21:46:40.096Z,18749.03
2022-11-22T21:49:08.593Z,18718.56
2022-11-22T21:51:36.735Z,18710.44
2022-11-22T21:54:05.919Z,18706.38
2022-11-22T21:56:34.384Z,18704.31
2022-11-22T21:59:02.638Z,18686.03
2022-11-22T22:01:32.757Z,18708.41
2022-11-22T22:04:00.882Z,18692.13
2022-11-22T22:06:29.012Z,18702.28
2022-11-22T22:08:57.216Z,18706.38
2022-11-22T22:11:25.372Z,18708.41
2022-11-22T22:13:55.144Z,18724.66
2022-11-22T22:16:25.861Z,18696.19
2022-11-22T22:18:55.462Z,18720.59
2022-11-22T22:21:23.572Z,18679.94
2022-11-22T22:23:53.307Z,18702.28
2022-11-22T22:26:21.471Z,18681.97
2022-11-22T22:28:49.579Z,18744.97
2022-11-22T22:31:21.440Z,18704.31
2022-11-22T22:33:51.012Z,18708.41
2022-11-22T22:36:20.631Z,18698.22
2022-11-22T22:38:50.151Z,18702.28
2022-11-22T22:41:19.007Z,18702.28
2022-11-22T22:43:49.736Z,18718.56
2022-11-22T22:46:20.045Z,18714.50
2022-11-22T22:48:49.553Z,18710.44
2022-11-22T22:51:21.437Z,18716.53
2022-11-22T22:53:50.539Z,18692.13
2022-11-22T22:56:21.532Z,18724.66
2022-11-22T22:58:53.904Z,18724.66
2022-11-22T23:01:25.354Z,18732.78
2022-11-22T23:03:57.225Z,18728.72
2022-11-22T23:06:29.843Z,18753.09
2022-11-22T23:08:59.314Z,18712.47
2022-11-22T23:11:44.113Z,18759.19
2022-11-22T23:14:12.940Z,18773.41
2022-11-22T23:16:41.210Z,18744.97
2022-11-22T23:19:10.041Z,18749.03
2022-11-22T23:21:39.619Z,18753.09
2022-11-22T23:24:09.212Z,18747.00
2022-11-22T23:26:38.436Z,18761.22
2022-11-22T23:29:06.873Z,18765.28
2022-11-22T23:31:35.080Z,18781.53
2022-11-22T23:34:03.520Z,18779.50
2022-11-22T23:36:34.814Z,18722.63
2022-11-22T23:39:07.101Z,18771.38
2022-11-22T23:41:35.272Z,18779.50
2022-11-22T23:44:03.701Z,18781.53
2022-11-22T23:46:31.807Z,18759.19
2022-11-22T23:49:02.331Z,18791.69
2022-11-22T23:51:33.252Z,18777.47
2022-11-22T23:54:04.036Z,18797.78
2022-11-22T23:56:36.291Z,18773.41
2022-11-22T23:59:05.997Z,18803.88
